sensor_id;sensor_type;location;lat;lon;timestamp;P1;durP1;ratioP1;P2;durP2;ratioP2
75593;SDS011;64176;49.156;7.810;2023-06-26T00:04:52;6.82;;;4.88;;
75593;SDS011;64176;49.156;7.810;2023-06-26T00:07:37;8.05;;;5.43;;
75593;SDS011;64176;49.156;7.810;2023-06-26T00:10:21;5.85;;;4.70;;
75593;SDS011;64176;49.156;7.810;2023-06-26T00:13:07;7.78;;;5.68;;
75593;SDS011;64176;49.156;7.810;2023-06-26T00:15:51;7.13;;;5.05;;
75593;SDS011;64176;49.156;7.810;2023-06-26T00:18:35;7.18;;;5.50;;
75593;SDS011;64176;49.156;7.810;2023-06-26T00:21:19;6.35;;;4.90;;
75593;SDS011;64176;49.156;7.810;2023-06-26T00:24:04;7.47;;;5.25;;
75593;SDS011;64176;49.156;7.810;2023-06-26T00:26:48;7.40;;;5.55;;
75593;SDS011;64176;49.156;7.810;2023-06-26T00:29:33;5.68;;;4.70;;
75593;SDS011;64176;49.156;7.810;2023-06-26T00:32:19;7.68;;;5.03;;
75593;SDS011;64176;49.156;7.810;2023-06-26T00:35:03;8.25;;;5.10;;
75593;SDS011;64176;49.156;7.810;2023-06-26T00:37:48;11.15;;;5.53;;
75593;SDS011;64176;49.156;7.810;2023-06-26T00:40:33;8.05;;;5.20;;
75593;SDS011;64176;49.156;7.810;2023-06-26T00:43:16;8.02;;;6.05;;
75593;SDS011;64176;49.156;7.810;2023-06-26T00:46:08;9.02;;;5.40;;
75593;SDS011;64176;49.156;7.810;2023-06-26T00:48:53;6.95;;;5.38;;
75593;SDS011;64176;49.156;7.810;2023-06-26T00:51:39;7.30;;;5.30;;
75593;SDS011;64176;49.156;7.810;2023-06-26T00:54:23;8.75;;;5.88;;
75593;SDS011;64176;49.156;7.810;2023-06-26T00:57:07;9.65;;;5.57;;
75593;SDS011;64176;49.156;7.810;2023-06-26T00:59:52;8.10;;;5.75;;
75593;SDS011;64176;49.156;7.810;2023-06-26T01:05:23;7.72;;;5.68;;
75593;SDS011;64176;49.156;7.810;2023-06-26T01:08:07;9.07;;;5.95;;
75593;SDS011;64176;49.156;7.810;2023-06-26T01:10:52;8.13;;;5.57;;
75593;SDS011;64176;49.156;7.810;2023-06-26T01:13:36;10.50;;;5.57;;
75593;SDS011;64176;49.156;7.810;2023-06-26T01:16:24;7.47;;;5.90;;
75593;SDS011;64176;49.156;7.810;2023-06-26T01:19:10;7.82;;;6.13;;
75593;SDS011;64176;49.156;7.810;2023-06-26T01:25:08;8.68;;;6.00;;
75593;SDS011;64176;49.156;7.810;2023-06-26T01:28:07;7.15;;;5.32;;
75593;SDS011;64176;49.156;7.810;2023-06-26T01:30:51;7.57;;;5.30;;
75593;SDS011;64176;49.156;7.810;2023-06-26T01:33:36;8.63;;;5.97;;
75593;SDS011;64176;49.156;7.810;2023-06-26T01:36:20;8.05;;;5.45;;
75593;SDS011;64176;49.156;7.810;2023-06-26T01:39:05;8.40;;;6.25;;
75593;SDS011;64176;49.156;7.810;2023-06-26T01:42:01;7.93;;;5.40;;
75593;SDS011;64176;49.156;7.810;2023-06-26T01:44:45;8.02;;;5.72;;
75593;SDS011;64176;49.156;7.810;2023-06-26T01:47:30;7.47;;;5.30;;
75593;SDS011;64176;49.156;7.810;2023-06-26T01:50:22;8.15;;;6.10;;
75593;SDS011;64176;49.156;7.810;2023-06-26T01:53:10;8.05;;;5.93;;
75593;SDS011;64176;49.156;7.810;2023-06-26T01:56:06;11.80;;;6.13;;
75593;SDS011;64176;49.156;7.810;2023-06-26T01:58:57;8.00;;;5.70;;
75593;SDS011;64176;49.156;7.810;2023-06-26T02:01:43;7.55;;;5.95;;
75593;SDS011;64176;49.156;7.810;2023-06-26T02:04:27;6.93;;;5.00;;
75593;SDS011;64176;49.156;7.810;2023-06-26T02:07:11;7.07;;;5.38;;
75593;SDS011;64176;49.156;7.810;2023-06-26T02:09:55;7.30;;;5.63;;
75593;SDS011;64176;49.156;7.810;2023-06-26T02:12:39;8.38;;;5.90;;
75593;SDS011;64176;49.156;7.810;2023-06-26T02:15:23;8.18;;;5.78;;
75593;SDS011;64176;49.156;7.810;2023-06-26T02:18:07;8.02;;;6.25;;
75593;SDS011;64176;49.156;7.810;2023-06-26T02:20:51;8.25;;;5.80;;
75593;SDS011;64176;49.156;7.810;2023-06-26T02:23:35;8.52;;;5.90;;
75593;SDS011;64176;49.156;7.810;2023-06-26T02:26:22;7.95;;;5.65;;
75593;SDS011;64176;49.156;7.810;2023-06-26T02:29:06;8.05;;;6.30;;
75593;SDS011;64176;49.156;7.810;2023-06-26T02:31:50;7.90;;;6.05;;
75593;SDS011;64176;49.156;7.810;2023-06-26T02:34:34;7.95;;;6.32;;
75593;SDS011;64176;49.156;7.810;2023-06-26T02:37:21;7.65;;;5.68;;
75593;SDS011;64176;49.156;7.810;2023-06-26T02:40:05;8.68;;;5.85;;
75593;SDS011;64176;49.156;7.810;2023-06-26T02:42:51;8.80;;;5.78;;
75593;SDS011;64176;49.156;7.810;2023-06-26T02:45:36;8.73;;;5.85;;
75593;SDS011;64176;49.156;7.810;2023-06-26T02:48:21;10.43;;;6.05;;
75593;SDS011;64176;49.156;7.810;2023-06-26T02:51:05;9.80;;;6.20;;
75593;SDS011;64176;49.156;7.810;2023-06-26T02:53:50;9.15;;;6.20;;
75593;SDS011;64176;49.156;7.810;2023-06-26T02:56:34;10.32;;;6.60;;
75593;SDS011;64176;49.156;7.810;2023-06-26T02:59:18;7.50;;;5.32;;
75593;SDS011;64176;49.156;7.810;2023-06-26T03:02:05;7.40;;;6.18;;
75593;SDS011;64176;49.156;7.810;2023-06-26T03:04:55;7.88;;;6.28;;
75593;SDS011;64176;49.156;7.810;2023-06-26T03:07:41;7.47;;;5.63;;
75593;SDS011;64176;49.156;7.810;2023-06-26T03:10:25;8.70;;;6.53;;
75593;SDS011;64176;49.156;7.810;2023-06-26T03:13:10;8.52;;;5.93;;
75593;SDS011;64176;49.156;7.810;2023-06-26T03:15:54;8.60;;;6.13;;
75593;SDS011;64176;49.156;7.810;2023-06-26T03:18:39;9.05;;;6.05;;
75593;SDS011;64176;49.156;7.810;2023-06-26T03:24:09;6.70;;;5.32;;
75593;SDS011;64176;49.156;7.810;2023-06-26T03:26:54;7.70;;;5.57;;
75593;SDS011;64176;49.156;7.810;2023-06-26T03:29:38;7.85;;;5.32;;
75593;SDS011;64176;49.156;7.810;2023-06-26T03:32:23;8.77;;;6.60;;
75593;SDS011;64176;49.156;7.810;2023-06-26T03:35:08;9.52;;;6.30;;
75593;SDS011;64176;49.156;7.810;2023-06-26T03:37:53;7.93;;;5.70;;
75593;SDS011;64176;49.156;7.810;2023-06-26T03:40:38;8.57;;;6.07;;
75593;SDS011;64176;49.156;7.810;2023-06-26T03:43:22;7.57;;;5.82;;
75593;SDS011;64176;49.156;7.810;2023-06-26T03:46:18;7.28;;;5.80;;
75593;SDS011;64176;49.156;7.810;2023-06-26T03:49:04;8.30;;;6.80;;
75593;SDS011;64176;49.156;7.810;2023-06-26T03:51:48;8.38;;;6.15;;
75593;SDS011;64176;49.156;7.810;2023-06-26T03:54:32;9.38;;;6.20;;
75593;SDS011;64176;49.156;7.810;2023-06-26T03:57:17;7.90;;;6.00;;
75593;SDS011;64176;49.156;7.810;2023-06-26T04:00:04;8.77;;;6.22;;
75593;SDS011;64176;49.156;7.810;2023-06-26T04:02:58;8.57;;;6.22;;
75593;SDS011;64176;49.156;7.810;2023-06-26T04:08:26;8.43;;;6.13;;
75593;SDS011;64176;49.156;7.810;2023-06-26T04:11:10;8.40;;;5.65;;
75593;SDS011;64176;49.156;7.810;2023-06-26T04:13:54;10.05;;;6.43;;
75593;SDS011;64176;49.156;7.810;2023-06-26T04:16:38;9.20;;;6.40;;
75593;SDS011;64176;49.156;7.810;2023-06-26T04:22:08;7.68;;;5.80;;
75593;SDS011;64176;49.156;7.810;2023-06-26T04:24:52;8.60;;;6.72;;
75593;SDS011;64176;49.156;7.810;2023-06-26T04:27:41;8.95;;;6.65;;
75593;SDS011;64176;49.156;7.810;2023-06-26T04:30:25;10.27;;;6.90;;
75593;SDS011;64176;49.156;7.810;2023-06-26T04:33:09;8.65;;;6.05;;
75593;SDS011;64176;49.156;7.810;2023-06-26T04:35:55;10.68;;;8.05;;
75593;SDS011;64176;49.156;7.810;2023-06-26T04:38:43;15.32;;;12.32;;
75593;SDS011;64176;49.156;7.810;2023-06-26T04:41:30;15.13;;;12.13;;
75593;SDS011;64176;49.156;7.810;2023-06-26T04:44:16;13.20;;;10.25;;
75593;SDS011;64176;49.156;7.810;2023-06-26T04:47:00;11.23;;;8.63;;
75593;SDS011;64176;49.156;7.810;2023-06-26T04:49:44;11.70;;;8.10;;
75593;SDS011;64176;49.156;7.810;2023-06-26T04:52:29;12.43;;;7.90;;
75593;SDS011;64176;49.156;7.810;2023-06-26T04:55:13;7.65;;;6.28;;
75593;SDS011;64176;49.156;7.810;2023-06-26T04:57:57;12.32;;;7.70;;
75593;SDS011;64176;49.156;7.810;2023-06-26T05:03:27;12.63;;;9.45;;
75593;SDS011;64176;49.156;7.810;2023-06-26T05:06:11;11.05;;;8.55;;
75593;SDS011;64176;49.156;7.810;2023-06-26T05:08:55;10.32;;;7.80;;
75593;SDS011;64176;49.156;7.810;2023-06-26T05:11:39;10.45;;;7.32;;
75593;SDS011;64176;49.156;7.810;2023-06-26T05:14:23;10.10;;;6.95;;
75593;SDS011;64176;49.156;7.810;2023-06-26T05:17:07;10.23;;;7.72;;
75593;SDS011;64176;49.156;7.810;2023-06-26T05:19:54;9.10;;;6.57;;
75593;SDS011;64176;49.156;7.810;2023-06-26T05:22:38;7.72;;;6.50;;
75593;SDS011;64176;49.156;7.810;2023-06-26T05:25:22;7.57;;;6.03;;
75593;SDS011;64176;49.156;7.810;2023-06-26T05:28:08;8.57;;;6.53;;
75593;SDS011;64176;49.156;7.810;2023-06-26T05:30:54;10.02;;;6.85;;
75593;SDS011;64176;49.156;7.810;2023-06-26T05:33:39;7.80;;;6.63;;
75593;SDS011;64176;49.156;7.810;2023-06-26T05:36:26;10.27;;;7.43;;
75593;SDS011;64176;49.156;7.810;2023-06-26T05:39:13;11.00;;;6.82;;
75593;SDS011;64176;49.156;7.810;2023-06-26T05:41:57;11.40;;;7.72;;
75593;SDS011;64176;49.156;7.810;2023-06-26T05:44:42;7.90;;;6.10;;
75593;SDS011;64176;49.156;7.810;2023-06-26T05:47:26;10.23;;;7.38;;
75593;SDS011;64176;49.156;7.810;2023-06-26T05:50:10;9.05;;;7.05;;
75593;SDS011;64176;49.156;7.810;2023-06-26T05:52:55;7.85;;;5.93;;
75593;SDS011;64176;49.156;7.810;2023-06-26T05:55:39;9.75;;;7.18;;
75593;SDS011;64176;49.156;7.810;2023-06-26T05:58:26;8.70;;;6.30;;
75593;SDS011;64176;49.156;7.810;2023-06-26T06:01:13;8.40;;;6.60;;
75593;SDS011;64176;49.156;7.810;2023-06-26T06:03:57;9.10;;;6.55;;
75593;SDS011;64176;49.156;7.810;2023-06-26T06:06:41;9.77;;;6.80;;
75593;SDS011;64176;49.156;7.810;2023-06-26T06:09:25;8.07;;;5.93;;
75593;SDS011;64176;49.156;7.810;2023-06-26T06:12:09;9.05;;;6.78;;
75593;SDS011;64176;49.156;7.810;2023-06-26T06:14:53;7.65;;;6.15;;
75593;SDS011;64176;49.156;7.810;2023-06-26T06:17:39;8.85;;;6.13;;
75593;SDS011;64176;49.156;7.810;2023-06-26T06:20:23;9.25;;;6.90;;
75593;SDS011;64176;49.156;7.810;2023-06-26T06:23:07;8.15;;;6.63;;
75593;SDS011;64176;49.156;7.810;2023-06-26T06:25:51;9.07;;;6.40;;
75593;SDS011;64176;49.156;7.810;2023-06-26T06:28:34;8.57;;;6.80;;
75593;SDS011;64176;49.156;7.810;2023-06-26T06:31:21;8.20;;;6.63;;
75593;SDS011;64176;49.156;7.810;2023-06-26T06:34:05;9.00;;;6.60;;
75593;SDS011;64176;49.156;7.810;2023-06-26T06:36:51;6.97;;;6.15;;
75593;SDS011;64176;49.156;7.810;2023-06-26T06:39:38;7.40;;;5.72;;
75593;SDS011;64176;49.156;7.810;2023-06-26T06:42:22;7.40;;;6.05;;
75593;SDS011;64176;49.156;7.810;2023-06-26T06:45:06;7.22;;;5.70;;
75593;SDS011;64176;49.156;7.810;2023-06-26T06:47:50;7.68;;;5.40;;
75593;SDS011;64176;49.156;7.810;2023-06-26T06:50:36;7.05;;;5.32;;
75593;SDS011;64176;49.156;7.810;2023-06-26T06:53:20;7.18;;;5.90;;
75593;SDS011;64176;49.156;7.810;2023-06-26T06:56:07;7.15;;;5.40;;
75593;SDS011;64176;49.156;7.810;2023-06-26T06:58:51;6.05;;;4.40;;
75593;SDS011;64176;49.156;7.810;2023-06-26T07:01:35;6.28;;;4.90;;
75593;SDS011;64176;49.156;7.810;2023-06-26T07:04:19;5.68;;;4.50;;
75593;SDS011;64176;49.156;7.810;2023-06-26T07:07:02;7.18;;;5.30;;
75593;SDS011;64176;49.156;7.810;2023-06-26T07:09:49;6.82;;;4.72;;
75593;SDS011;64176;49.156;7.810;2023-06-26T07:12:35;6.60;;;4.72;;
75593;SDS011;64176;49.156;7.810;2023-06-26T07:15:20;5.70;;;4.85;;
75593;SDS011;64176;49.156;7.810;2023-06-26T07:18:04;6.18;;;4.97;;
75593;SDS011;64176;49.156;7.810;2023-06-26T07:20:48;7.45;;;5.10;;
75593;SDS011;64176;49.156;7.810;2023-06-26T07:23:32;6.13;;;4.40;;
75593;SDS011;64176;49.156;7.810;2023-06-26T07:26:16;6.80;;;5.03;;
75593;SDS011;64176;49.156;7.810;2023-06-26T07:29:00;7.15;;;5.22;;
75593;SDS011;64176;49.156;7.810;2023-06-26T07:31:46;6.32;;;5.15;;
75593;SDS011;64176;49.156;7.810;2023-06-26T07:34:32;6.88;;;5.03;;
75593;SDS011;64176;49.156;7.810;2023-06-26T07:37:18;5.72;;;4.53;;
75593;SDS011;64176;49.156;7.810;2023-06-26T07:40:02;5.18;;;4.32;;
75593;SDS011;64176;49.156;7.810;2023-06-26T07:42:49;6.22;;;4.25;;
75593;SDS011;64176;49.156;7.810;2023-06-26T07:45:33;7.63;;;4.18;;
75593;SDS011;64176;49.156;7.810;2023-06-26T07:48:17;4.47;;;3.92;;
75593;SDS011;64176;49.156;7.810;2023-06-26T07:51:01;7.00;;;4.22;;
75593;SDS011;64176;49.156;7.810;2023-06-26T07:53:47;6.28;;;4.53;;
75593;SDS011;64176;49.156;7.810;2023-06-26T07:56:31;5.20;;;4.63;;
75593;SDS011;64176;49.156;7.810;2023-06-26T07:59:15;6.32;;;3.70;;
75593;SDS011;64176;49.156;7.810;2023-06-26T08:01:59;5.45;;;3.83;;
75593;SDS011;64176;49.156;7.810;2023-06-26T08:04:43;4.93;;;4.13;;
75593;SDS011;64176;49.156;7.810;2023-06-26T08:07:28;4.82;;;4.32;;
75593;SDS011;64176;49.156;7.810;2023-06-26T08:10:14;6.80;;;4.85;;
75593;SDS011;64176;49.156;7.810;2023-06-26T08:12:58;6.18;;;4.18;;
75593;SDS011;64176;49.156;7.810;2023-06-26T08:15:42;5.15;;;4.40;;
75593;SDS011;64176;49.156;7.810;2023-06-26T08:18:29;7.22;;;4.82;;
75593;SDS011;64176;49.156;7.810;2023-06-26T08:21:13;6.43;;;5.07;;
75593;SDS011;64176;49.156;7.810;2023-06-26T08:23:57;5.20;;;4.70;;
75593;SDS011;64176;49.156;7.810;2023-06-26T08:26:47;6.70;;;4.97;;
75593;SDS011;64176;49.156;7.810;2023-06-26T08:29:33;6.88;;;5.20;;
75593;SDS011;64176;49.156;7.810;2023-06-26T08:32:17;6.00;;;4.50;;
75593;SDS011;64176;49.156;7.810;2023-06-26T08:35:01;6.25;;;4.57;;
75593;SDS011;64176;49.156;7.810;2023-06-26T08:37:45;5.95;;;4.38;;
75593;SDS011;64176;49.156;7.810;2023-06-26T08:40:32;9.43;;;5.22;;
75593;SDS011;64176;49.156;7.810;2023-06-26T08:43:16;5.78;;;4.72;;
75593;SDS011;64176;49.156;7.810;2023-06-26T08:46:00;5.88;;;4.43;;
75593;SDS011;64176;49.156;7.810;2023-06-26T08:48:48;6.40;;;5.10;;
75593;SDS011;64176;49.156;7.810;2023-06-26T08:51:33;9.93;;;4.72;;
75593;SDS011;64176;49.156;7.810;2023-06-26T08:54:22;5.53;;;4.68;;
75593;SDS011;64176;49.156;7.810;2023-06-26T08:57:14;7.00;;;4.75;;
75593;SDS011;64176;49.156;7.810;2023-06-26T09:00:04;6.07;;;4.78;;
75593;SDS011;64176;49.156;7.810;2023-06-26T09:02:49;6.20;;;4.55;;
75593;SDS011;64176;49.156;7.810;2023-06-26T09:05:33;5.90;;;4.32;;
75593;SDS011;64176;49.156;7.810;2023-06-26T09:08:17;5.47;;;4.32;;
75593;SDS011;64176;49.156;7.810;2023-06-26T09:11:01;5.60;;;4.50;;
75593;SDS011;64176;49.156;7.810;2023-06-26T09:13:45;8.50;;;4.57;;
75593;SDS011;64176;49.156;7.810;2023-06-26T09:16:31;6.25;;;4.75;;
75593;SDS011;64176;49.156;7.810;2023-06-26T09:19:18;6.20;;;3.83;;
75593;SDS011;64176;49.156;7.810;2023-06-26T09:22:05;6.82;;;4.65;;
75593;SDS011;64176;49.156;7.810;2023-06-26T09:24:56;7.65;;;4.10;;
75593;SDS011;64176;49.156;7.810;2023-06-26T09:27:40;5.53;;;3.78;;
75593;SDS011;64176;49.156;7.810;2023-06-26T09:30:27;6.82;;;4.60;;
75593;SDS011;64176;49.156;7.810;2023-06-26T09:36:02;5.97;;;4.30;;
75593;SDS011;64176;49.156;7.810;2023-06-26T09:38:48;9.48;;;4.03;;
75593;SDS011;64176;49.156;7.810;2023-06-26T09:41:32;5.22;;;4.72;;
75593;SDS011;64176;49.156;7.810;2023-06-26T09:44:16;4.65;;;3.75;;
75593;SDS011;64176;49.156;7.810;2023-06-26T09:47:01;5.80;;;3.78;;
75593;SDS011;64176;49.156;7.810;2023-06-26T09:49:46;6.80;;;3.70;;
75593;SDS011;64176;49.156;7.810;2023-06-26T09:52:35;4.38;;;3.20;;
75593;SDS011;64176;49.156;7.810;2023-06-26T09:55:19;5.63;;;4.03;;
75593;SDS011;64176;49.156;7.810;2023-06-26T09:58:05;4.28;;;3.05;;
75593;SDS011;64176;49.156;7.810;2023-06-26T10:00:49;5.53;;;3.33;;
75593;SDS011;64176;49.156;7.810;2023-06-26T10:03:36;4.38;;;3.33;;
75593;SDS011;64176;49.156;7.810;2023-06-26T10:06:26;5.57;;;3.92;;
75593;SDS011;64176;49.156;7.810;2023-06-26T10:09:12;5.10;;;3.28;;
75593;SDS011;64176;49.156;7.810;2023-06-26T10:12:02;5.25;;;3.35;;
75593;SDS011;64176;49.156;7.810;2023-06-26T10:14:51;6.78;;;4.00;;
75593;SDS011;64176;49.156;7.810;2023-06-26T10:17:36;5.50;;;3.53;;
75593;SDS011;64176;49.156;7.810;2023-06-26T10:20:26;5.07;;;3.95;;
75593;SDS011;64176;49.156;7.810;2023-06-26T10:23:11;3.97;;;2.97;;
75593;SDS011;64176;49.156;7.810;2023-06-26T10:25:56;6.28;;;3.53;;
75593;SDS011;64176;49.156;7.810;2023-06-26T10:28:44;3.88;;;3.03;;
75593;SDS011;64176;49.156;7.810;2023-06-26T10:31:31;4.45;;;3.08;;
75593;SDS011;64176;49.156;7.810;2023-06-26T10:34:16;4.70;;;3.05;;
75593;SDS011;64176;49.156;7.810;2023-06-26T10:37:04;7.00;;;2.90;;
75593;SDS011;64176;49.156;7.810;2023-06-26T10:39:49;3.95;;;2.70;;
75593;SDS011;64176;49.156;7.810;2023-06-26T10:42:38;2.95;;;2.05;;
75593;SDS011;64176;49.156;7.810;2023-06-26T10:45:23;5.88;;;2.75;;
75593;SDS011;64176;49.156;7.810;2023-06-26T10:48:14;2.92;;;2.33;;
75593;SDS011;64176;49.156;7.810;2023-06-26T10:51:01;5.13;;;2.20;;
75593;SDS011;64176;49.156;7.810;2023-06-26T10:53:57;3.88;;;2.70;;
75593;SDS011;64176;49.156;7.810;2023-06-26T10:56:45;3.22;;;2.55;;
75593;SDS011;64176;49.156;7.810;2023-06-26T10:59:30;3.17;;;2.33;;
75593;SDS011;64176;49.156;7.810;2023-06-26T11:02:15;4.25;;;2.58;;
75593;SDS011;64176;49.156;7.810;2023-06-26T11:05:02;3.47;;;2.15;;
75593;SDS011;64176;49.156;7.810;2023-06-26T11:08:05;3.63;;;2.30;;
75593;SDS011;64176;49.156;7.810;2023-06-26T11:10:54;4.07;;;2.70;;
75593;SDS011;64176;49.156;7.810;2023-06-26T11:13:44;4.55;;;2.53;;
75593;SDS011;64176;49.156;7.810;2023-06-26T11:16:29;6.45;;;2.97;;
75593;SDS011;64176;49.156;7.810;2023-06-26T11:19:17;3.83;;;2.38;;
75593;SDS011;64176;49.156;7.810;2023-06-26T11:22:04;4.50;;;2.83;;
75593;SDS011;64176;49.156;7.810;2023-06-26T11:24:49;2.67;;;1.80;;
75593;SDS011;64176;49.156;7.810;2023-06-26T11:27:43;15.63;;;2.72;;
75593;SDS011;64176;49.156;7.810;2023-06-26T11:30:27;3.10;;;2.42;;
75593;SDS011;64176;49.156;7.810;2023-06-26T11:33:11;5.90;;;1.90;;
75593;SDS011;64176;49.156;7.810;2023-06-26T11:35:55;4.13;;;2.60;;
75593;SDS011;64176;49.156;7.810;2023-06-26T11:38:58;5.10;;;2.03;;
75593;SDS011;64176;49.156;7.810;2023-06-26T11:41:46;3.95;;;2.08;;
75593;SDS011;64176;49.156;7.810;2023-06-26T11:44:30;3.35;;;2.40;;
75593;SDS011;64176;49.156;7.810;2023-06-26T11:47:15;3.40;;;2.60;;
75593;SDS011;64176;49.156;7.810;2023-06-26T11:50:01;3.88;;;2.63;;
75593;SDS011;64176;49.156;7.810;2023-06-26T11:52:55;4.13;;;3.17;;
75593;SDS011;64176;49.156;7.810;2023-06-26T11:55:40;6.93;;;3.85;;
75593;SDS011;64176;49.156;7.810;2023-06-26T11:58:26;6.97;;;3.75;;
75593;SDS011;64176;49.156;7.810;2023-06-26T12:01:10;5.53;;;3.00;;
75593;SDS011;64176;49.156;7.810;2023-06-26T12:04:01;5.22;;;3.15;;
75593;SDS011;64176;49.156;7.810;2023-06-26T12:06:47;6.40;;;3.40;;
75593;SDS011;64176;49.156;7.810;2023-06-26T12:09:37;6.78;;;3.80;;
75593;SDS011;64176;49.156;7.810;2023-06-26T12:12:27;6.25;;;3.95;;
75593;SDS011;64176;49.156;7.810;2023-06-26T12:15:14;7.80;;;4.43;;
75593;SDS011;64176;49.156;7.810;2023-06-26T12:17:59;5.75;;;4.05;;
75593;SDS011;64176;49.156;7.810;2023-06-26T12:20:43;8.55;;;4.93;;
75593;SDS011;64176;49.156;7.810;2023-06-26T12:23:35;7.18;;;4.00;;
75593;SDS011;64176;49.156;7.810;2023-06-26T12:26:23;6.55;;;4.20;;
75593;SDS011;64176;49.156;7.810;2023-06-26T12:29:08;6.95;;;4.10;;
75593;SDS011;64176;49.156;7.810;2023-06-26T12:31:57;5.70;;;3.47;;
75593;SDS011;64176;49.156;7.810;2023-06-26T12:34:41;6.47;;;3.90;;
75593;SDS011;64176;49.156;7.810;2023-06-26T12:37:25;5.82;;;3.30;;
75593;SDS011;64176;49.156;7.810;2023-06-26T12:40:18;6.25;;;3.25;;
75593;SDS011;64176;49.156;7.810;2023-06-26T12:43:06;4.72;;;3.28;;
75593;SDS011;64176;49.156;7.810;2023-06-26T12:45:55;8.15;;;4.18;;
75593;SDS011;64176;49.156;7.810;2023-06-26T12:48:40;4.50;;;2.80;;
75593;SDS011;64176;49.156;7.810;2023-06-26T12:51:31;4.85;;;2.50;;
75593;SDS011;64176;49.156;7.810;2023-06-26T12:54:15;4.45;;;2.30;;
75593;SDS011;64176;49.156;7.810;2023-06-26T12:56:58;3.72;;;2.13;;
75593;SDS011;64176;49.156;7.810;2023-06-26T12:59:43;7.63;;;2.85;;
75593;SDS011;64176;49.156;7.810;2023-06-26T13:02:27;5.13;;;2.15;;
75593;SDS011;64176;49.156;7.810;2023-06-26T13:05:13;3.72;;;1.88;;
75593;SDS011;64176;49.156;7.810;2023-06-26T13:07:57;2.67;;;1.45;;
75593;SDS011;64176;49.156;7.810;2023-06-26T13:10:44;4.05;;;1.60;;
75593;SDS011;64176;49.156;7.810;2023-06-26T13:13:29;2.92;;;1.45;;
75593;SDS011;64176;49.156;7.810;2023-06-26T13:16:15;2.40;;;1.42;;
75593;SDS011;64176;49.156;7.810;2023-06-26T13:19:02;2.63;;;1.20;;
75593;SDS011;64176;49.156;7.810;2023-06-26T13:21:46;3.65;;;1.33;;
75593;SDS011;64176;49.156;7.810;2023-06-26T13:24:30;3.75;;;1.40;;
75593;SDS011;64176;49.156;7.810;2023-06-26T13:27:17;1.95;;;1.17;;
75593;SDS011;64176;49.156;7.810;2023-06-26T13:30:01;3.50;;;1.10;;
75593;SDS011;64176;49.156;7.810;2023-06-26T13:32:47;2.00;;;0.93;;
75593;SDS011;64176;49.156;7.810;2023-06-26T13:35:31;3.90;;;1.55;;
75593;SDS011;64176;49.156;7.810;2023-06-26T13:38:15;2.00;;;1.40;;
75593;SDS011;64176;49.156;7.810;2023-06-26T13:40:59;2.15;;;1.00;;
75593;SDS011;64176;49.156;7.810;2023-06-26T13:43:44;5.95;;;1.27;;
75593;SDS011;64176;49.156;7.810;2023-06-26T13:46:28;2.15;;;1.00;;
75593;SDS011;64176;49.156;7.810;2023-06-26T13:49:12;1.58;;;0.90;;
75593;SDS011;64176;49.156;7.810;2023-06-26T13:51:56;3.50;;;1.10;;
75593;SDS011;64176;49.156;7.810;2023-06-26T13:54:40;4.00;;;1.00;;
75593;SDS011;64176;49.156;7.810;2023-06-26T13:57:24;1.98;;;1.13;;
75593;SDS011;64176;49.156;7.810;2023-06-26T14:00:11;3.38;;;1.20;;
75593;SDS011;64176;49.156;7.810;2023-06-26T14:03:00;4.20;;;1.30;;
75593;SDS011;64176;49.156;7.810;2023-06-26T14:05:47;1.75;;;1.00;;
75593;SDS011;64176;49.156;7.810;2023-06-26T14:08:31;3.50;;;0.90;;
75593;SDS011;64176;49.156;7.810;2023-06-26T14:11:15;3.42;;;1.10;;
75593;SDS011;64176;49.156;7.810;2023-06-26T14:13:59;2.30;;;1.20;;
75593;SDS011;64176;49.156;7.810;2023-06-26T14:16:43;4.10;;;1.15;;
75593;SDS011;64176;49.156;7.810;2023-06-26T14:19:28;4.35;;;1.02;;
75593;SDS011;64176;49.156;7.810;2023-06-26T14:22:12;2.20;;;1.30;;
75593;SDS011;64176;49.156;7.810;2023-06-26T14:24:58;2.97;;;1.13;;
75593;SDS011;64176;49.156;7.810;2023-06-26T14:27:44;1.85;;;1.25;;
75593;SDS011;64176;49.156;7.810;2023-06-26T14:30:28;4.85;;;1.40;;
75593;SDS011;64176;49.156;7.810;2023-06-26T14:33:15;3.47;;;1.33;;
75593;SDS011;64176;49.156;7.810;2023-06-26T14:35:59;5.05;;;1.40;;
75593;SDS011;64176;49.156;7.810;2023-06-26T14:38:43;5.82;;;1.33;;
75593;SDS011;64176;49.156;7.810;2023-06-26T14:41:27;2.30;;;0.95;;
75593;SDS011;64176;49.156;7.810;2023-06-26T14:44:11;1.45;;;0.80;;
75593;SDS011;64176;49.156;7.810;2023-06-26T14:46:55;3.58;;;1.15;;
75593;SDS011;64176;49.156;7.810;2023-06-26T14:49:42;3.08;;;0.82;;
75593;SDS011;64176;49.156;7.810;2023-06-26T14:52:28;2.83;;;1.45;;
75593;SDS011;64176;49.156;7.810;2023-06-26T14:55:15;3.05;;;0.90;;
75593;SDS011;64176;49.156;7.810;2023-06-26T14:57:59;5.18;;;1.00;;
75593;SDS011;64176;49.156;7.810;2023-06-26T15:00:45;3.20;;;1.10;;
75593;SDS011;64176;49.156;7.810;2023-06-26T15:03:29;1.92;;;1.08;;
75593;SDS011;64176;49.156;7.810;2023-06-26T15:06:13;3.42;;;1.33;;
75593;SDS011;64176;49.156;7.810;2023-06-26T15:08:58;3.10;;;1.42;;
75593;SDS011;64176;49.156;7.810;2023-06-26T15:11:43;4.13;;;0.75;;
75593;SDS011;64176;49.156;7.810;2023-06-26T15:14:29;3.28;;;0.98;;
75593;SDS011;64176;49.156;7.810;2023-06-26T15:17:13;7.97;;;0.98;;
75593;SDS011;64176;49.156;7.810;2023-06-26T15:19:59;2.55;;;1.15;;
75593;SDS011;64176;49.156;7.810;2023-06-26T15:22:44;4.00;;;1.45;;
75593;SDS011;64176;49.156;7.810;2023-06-26T15:25:28;2.47;;;0.90;;
75593;SDS011;64176;49.156;7.810;2023-06-26T15:28:14;4.03;;;1.60;;
75593;SDS011;64176;49.156;7.810;2023-06-26T15:31:03;1.92;;;0.70;;
75593;SDS011;64176;49.156;7.810;2023-06-26T15:33:47;2.95;;;0.98;;
75593;SDS011;64176;49.156;7.810;2023-06-26T15:36:31;2.85;;;1.48;;
75593;SDS011;64176;49.156;7.810;2023-06-26T15:39:16;3.03;;;1.23;;
75593;SDS011;64176;49.156;7.810;2023-06-26T15:42:00;4.18;;;1.70;;
75593;SDS011;64176;49.156;7.810;2023-06-26T15:44:46;2.33;;;1.20;;
75593;SDS011;64176;49.156;7.810;2023-06-26T15:47:30;2.63;;;1.20;;
75593;SDS011;64176;49.156;7.810;2023-06-26T15:50:14;5.60;;;1.08;;
75593;SDS011;64176;49.156;7.810;2023-06-26T15:52:58;3.47;;;1.33;;
75593;SDS011;64176;49.156;7.810;2023-06-26T15:55:42;2.58;;;0.82;;
75593;SDS011;64176;49.156;7.810;2023-06-26T15:58:29;3.78;;;1.00;;
75593;SDS011;64176;49.156;7.810;2023-06-26T16:01:12;3.30;;;0.90;;
75593;SDS011;64176;49.156;7.810;2023-06-26T16:03:56;2.30;;;0.80;;
75593;SDS011;64176;49.156;7.810;2023-06-26T16:06:40;4.38;;;1.35;;
75593;SDS011;64176;49.156;7.810;2023-06-26T16:09:24;1.80;;;0.80;;
75593;SDS011;64176;49.156;7.810;2023-06-26T16:12:08;2.78;;;1.50;;
75593;SDS011;64176;49.156;7.810;2023-06-26T16:14:52;3.45;;;1.00;;
75593;SDS011;64176;49.156;7.810;2023-06-26T16:17:39;3.33;;;1.10;;
75593;SDS011;64176;49.156;7.810;2023-06-26T16:20:23;3.15;;;1.20;;
75593;SDS011;64176;49.156;7.810;2023-06-26T16:23:08;2.70;;;1.63;;
75593;SDS011;64176;49.156;7.810;2023-06-26T16:25:54;2.42;;;1.10;;
75593;SDS011;64176;49.156;7.810;2023-06-26T16:28:41;5.28;;;1.30;;
75593;SDS011;64176;49.156;7.810;2023-06-26T16:31:25;3.13;;;1.08;;
75593;SDS011;64176;49.156;7.810;2023-06-26T16:34:14;2.55;;;0.93;;
75593;SDS011;64176;49.156;7.810;2023-06-26T16:36:59;3.92;;;1.10;;
75593;SDS011;64176;49.156;7.810;2023-06-26T16:39:50;4.40;;;0.93;;
75593;SDS011;64176;49.156;7.810;2023-06-26T16:42:34;3.45;;;1.15;;
75593;SDS011;64176;49.156;7.810;2023-06-26T16:45:18;3.70;;;1.00;;
75593;SDS011;64176;49.156;7.810;2023-06-26T16:48:04;5.18;;;0.95;;
75593;SDS011;64176;49.156;7.810;2023-06-26T16:50:53;2.38;;;0.90;;
75593;SDS011;64176;49.156;7.810;2023-06-26T16:53:37;2.47;;;0.88;;
75593;SDS011;64176;49.156;7.810;2023-06-26T16:56:21;3.15;;;1.45;;
75593;SDS011;64176;49.156;7.810;2023-06-26T16:59:09;1.75;;;0.80;;